sensor_id;sensor_type;location;lat;lon;timestamp;temperature;humidity
10980;DHT22;5543;51.734;8.744;2023-08-07T00:00:23;13.80;99.90
10980;DHT22;5543;51.734;8.744;2023-08-07T00:02:51;14.00;99.90
10980;DHT22;5543;51.734;8.744;2023-08-07T00:05:19;13.80;99.90
10980;DHT22;5543;51.734;8.744;2023-08-07T00:07:47;13.80;99.90
10980;DHT22;5543;51.734;8.744;2023-08-07T00:10:15;13.70;99.90
10980;DHT22;5543;51.734;8.744;2023-08-07T00:12:43;13.70;99.90
10980;DHT22;5543;51.734;8.744;2023-08-07T00:15:13;13.80;99.90
10980;DHT22;5543;51.734;8.744;2023-08-07T00:17:41;13.80;99.90
10980;DHT22;5543;51.734;8.744;2023-08-07T00:20:09;13.80;99.90
10980;DHT22;5543;51.734;8.744;2023-08-07T00:22:37;13.70;99.90
10980;DHT22;5543;51.734;8.744;2023-08-07T00:25:06;13.80;99.90
10980;DHT22;5543;51.734;8.744;2023-08-07T00:27:34;13.80;99.90
10980;DHT22;5543;51.734;8.744;2023-08-07T00:30:02;13.70;99.90
10980;DHT22;5543;51.734;8.744;2023-08-07T00:32:32;13.80;99.90
10980;DHT22;5543;51.734;8.744;2023-08-07T00:35:00;13.80;99.90
10980;DHT22;5543;51.734;8.744;2023-08-07T00:37:28;13.80;99.90
10980;DHT22;5543;51.734;8.744;2023-08-07T00:39:56;13.70;99.90
10980;DHT22;5543;51.734;8.744;2023-08-07T00:42:24;13.70;99.90
10980;DHT22;5543;51.734;8.744;2023-08-07T00:44:52;13.70;99.90
10980;DHT22;5543;51.734;8.744;2023-08-07T00:47:20;13.70;99.90
10980;DHT22;5543;51.734;8.744;2023-08-07T00:49:50;13.90;99.90
10980;DHT22;5543;51.734;8.744;2023-08-07T00:52:18;13.70;99.90
10980;DHT22;5543;51.734;8.744;2023-08-07T00:54:46;13.70;99.90
10980;DHT22;5543;51.734;8.744;2023-08-07T00:57:17;13.90;99.90
10980;DHT22;5543;51.734;8.744;2023-08-07T00:59:49;13.70;99.90
10980;DHT22;5543;51.734;8.744;2023-08-07T01:02:18;13.80;99.90
10980;DHT22;5543;51.734;8.744;2023-08-07T01:04:46;13.70;99.90
10980;DHT22;5543;51.734;8.744;2023-08-07T01:07:16;13.80;99.90
10980;DHT22;5543;51.734;8.744;2023-08-07T01:09:44;13.60;99.90
10980;DHT22;5543;51.734;8.744;2023-08-07T01:12:15;13.70;99.90
10980;DHT22;5543;51.734;8.744;2023-08-07T01:14:51;13.80;99.90
10980;DHT22;5543;51.734;8.744;2023-08-07T01:17:22;13.70;99.90
10980;DHT22;5543;51.734;8.744;2023-08-07T01:19:51;13.80;99.90
10980;DHT22;5543;51.734;8.744;2023-08-07T01:22:21;13.80;99.90
10980;DHT22;5543;51.734;8.744;2023-08-07T01:24:50;13.80;99.90
10980;DHT22;5543;51.734;8.744;2023-08-07T01:27:35;13.80;99.90
10980;DHT22;5543;51.734;8.744;2023-08-07T01:30:11;13.70;99.90
10980;DHT22;5543;51.734;8.744;2023-08-07T01:32:49;13.80;99.90
10980;DHT22;5543;51.734;8.744;2023-08-07T01:35:23;13.80;99.90
10980;DHT22;5543;51.734;8.744;2023-08-07T01:37:56;13.80;99.90
10980;DHT22;5543;51.734;8.744;2023-08-07T01:40:25;13.70;99.90
10980;DHT22;5543;51.734;8.744;2023-08-07T01:42:53;13.80;99.90
10980;DHT22;5543;51.734;8.744;2023-08-07T01:45:24;13.90;99.90
10980;DHT22;5543;51.734;8.744;2023-08-07T01:47:53;13.70;99.90
10980;DHT22;5543;51.734;8.744;2023-08-07T01:50:22;13.70;99.90
10980;DHT22;5543;51.734;8.744;2023-08-07T01:52:51;13.70;99.90
10980;DHT22;5543;51.734;8.744;2023-08-07T01:55:22;13.70;99.90
10980;DHT22;5543;51.734;8.744;2023-08-07T01:57:50;13.80;99.90
10980;DHT22;5543;51.734;8.744;2023-08-07T02:00:19;13.80;99.90
10980;DHT22;5543;51.734;8.744;2023-08-07T02:02:49;13.80;99.90
10980;DHT22;5543;51.734;8.744;2023-08-07T02:05:17;13.70;99.90
10980;DHT22;5543;51.734;8.744;2023-08-07T02:07:45;13.70;99.90
10980;DHT22;5543;51.734;8.744;2023-08-07T02:10:13;13.70;99.90
10980;DHT22;5543;51.734;8.744;2023-08-07T02:12:42;13.70;99.90
10980;DHT22;5543;51.734;8.744;2023-08-07T02:15:11;13.70;99.90
10980;DHT22;5543;51.734;8.744;2023-08-07T02:17:39;13.70;99.90
10980;DHT22;5543;51.734;8.744;2023-08-07T02:20:09;13.70;99.90
10980;DHT22;5543;51.734;8.744;2023-08-07T02:22:38;13.70;99.90
10980;DHT22;5543;51.734;8.744;2023-08-07T02:25:07;13.70;99.90
10980;DHT22;5543;51.734;8.744;2023-08-07T02:27:35;13.70;99.90
10980;DHT22;5543;51.734;8.744;2023-08-07T02:30:05;13.70;99.90
10980;DHT22;5543;51.734;8.744;2023-08-07T02:32:34;13.70;99.90
10980;DHT22;5543;51.734;8.744;2023-08-07T02:35:02;13.70;99.90
10980;DHT22;5543;51.734;8.744;2023-08-07T02:37:31;13.70;99.90
10980;DHT22;5543;51.734;8.744;2023-08-07T02:39:59;13.70;99.90
10980;DHT22;5543;51.734;8.744;2023-08-07T02:42:26;13.80;99.90
10980;DHT22;5543;51.734;8.744;2023-08-07T02:44:55;13.70;99.90
10980;DHT22;5543;51.734;8.744;2023-08-07T02:47:24;13.70;99.90
10980;DHT22;5543;51.734;8.744;2023-08-07T02:49:52;13.70;99.90
10980;DHT22;5543;51.734;8.744;2023-08-07T02:52:20;13.70;99.90
10980;DHT22;5543;51.734;8.744;2023-08-07T02:54:48;14.00;99.90
10980;DHT22;5543;51.734;8.744;2023-08-07T02:57:16;13.70;99.90
10980;DHT22;5543;51.734;8.744;2023-08-07T02:59:44;13.80;99.90
10980;DHT22;5543;51.734;8.744;2023-08-07T03:02:12;13.70;99.90
10980;DHT22;5543;51.734;8.744;2023-08-07T03:04:42;13.80;99.90
10980;DHT22;5543;51.734;8.744;2023-08-07T03:07:10;13.80;99.90
10980;DHT22;5543;51.734;8.744;2023-08-07T03:09:38;13.70;99.90
10980;DHT22;5543;51.734;8.744;2023-08-07T03:12:07;13.80;99.90
10980;DHT22;5543;51.734;8.744;2023-08-07T03:14:35;13.80;99.90
10980;DHT22;5543;51.734;8.744;2023-08-07T03:17:03;13.80;99.90
10980;DHT22;5543;51.734;8.744;2023-08-07T03:19:31;13.80;99.90
10980;DHT22;5543;51.734;8.744;2023-08-07T03:22:01;13.80;99.90
10980;DHT22;5543;51.734;8.744;2023-08-07T03:24:29;13.80;99.90
10980;DHT22;5543;51.734;8.744;2023-08-07T03:26:57;13.80;99.90
10980;DHT22;5543;51.734;8.744;2023-08-07T03:29:25;13.80;99.90
10980;DHT22;5543;51.734;8.744;2023-08-07T03:31:53;13.80;99.90
10980;DHT22;5543;51.734;8.744;2023-08-07T03:34:21;13.80;99.90
10980;DHT22;5543;51.734;8.744;2023-08-07T03:36:49;13.80;99.90
10980;DHT22;5543;51.734;8.744;2023-08-07T03:39:19;13.80;99.90
10980;DHT22;5543;51.734;8.744;2023-08-07T03:41:47;13.80;99.90
10980;DHT22;5543;51.734;8.744;2023-08-07T03:44:15;13.80;99.90
10980;DHT22;5543;51.734;8.744;2023-08-07T03:46:43;13.80;99.90
10980;DHT22;5543;51.734;8.744;2023-08-07T03:49:11;13.80;99.90
10980;DHT22;5543;51.734;8.744;2023-08-07T03:51:38;14.00;99.90
10980;DHT22;5543;51.734;8.744;2023-08-07T03:54:07;13.90;99.90
10980;DHT22;5543;51.734;8.744;2023-08-07T03:56:36;13.90;99.90
10980;DHT22;5543;51.734;8.744;2023-08-07T03:59:04;13.90;99.90
10980;DHT22;5543;51.734;8.744;2023-08-07T04:01:32;13.90;99.90
10980;DHT22;5543;51.734;8.744;2023-08-07T04:04:01;13.90;99.90
10980;DHT22;5543;51.734;8.744;2023-08-07T04:06:29;13.90;99.90
10980;DHT22;5543;51.734;8.744;2023-08-07T04:08:57;13.90;99.90
10980;DHT22;5543;51.734;8.744;2023-08-07T04:11:25;13.90;99.90
10980;DHT22;5543;51.734;8.744;2023-08-07T04:13:55;13.90;99.90
10980;DHT22;5543;51.734;8.744;2023-08-07T04:16:23;14.00;99.90
10980;DHT22;5543;51.734;8.744;2023-08-07T04:18:51;13.90;99.90
10980;DHT22;5543;51.734;8.744;2023-08-07T04:21:19;14.00;99.90
10980;DHT22;5543;51.734;8.744;2023-08-07T04:23:47;14.00;99.90
10980;DHT22;5543;51.734;8.744;2023-08-07T04:26:15;14.00;99.90
10980;DHT22;5543;51.734;8.744;2023-08-07T04:28:43;14.00;99.90
10980;DHT22;5543;51.734;8.744;2023-08-07T04:31:13;13.90;99.90
10980;DHT22;5543;51.734;8.744;2023-08-07T04:33:41;14.00;99.90
10980;DHT22;5543;51.734;8.744;2023-08-07T04:36:09;14.00;99.90
10980;DHT22;5543;51.734;8.744;2023-08-07T04:38:37;14.00;99.90
10980;DHT22;5543;51.734;8.744;2023-08-07T04:41:05;14.00;99.90
10980;DHT22;5543;51.734;8.744;2023-08-07T04:43:33;14.00;99.90
10980;DHT22;5543;51.734;8.744;2023-08-07T04:46:01;13.90;99.90
10980;DHT22;5543;51.734;8.744;2023-08-07T04:48:31;13.90;99.90
10980;DHT22;5543;51.734;8.744;2023-08-07T04:50:59;13.90;99.90
10980;DHT22;5543;51.734;8.744;2023-08-07T04:53:27;13.80;99.90
10980;DHT22;5543;51.734;8.744;2023-08-07T04:55:55;13.90;99.90
10980;DHT22;5543;51.734;8.744;2023-08-07T04:58:23;13.90;99.90
10980;DHT22;5543;51.734;8.744;2023-08-07T05:00:55;13.90;99.90
10980;DHT22;5543;51.734;8.744;2023-08-07T05:03:24;13.90;99.90
10980;DHT22;5543;51.734;8.744;2023-08-07T05:05:59;13.90;99.90
10980;DHT22;5543;51.734;8.744;2023-08-07T05:08:27;13.90;99.90
10980;DHT22;5543;51.734;8.744;2023-08-07T05:10:55;13.90;99.90
10980;DHT22;5543;51.734;8.744;2023-08-07T05:13:23;13.90;99.90
10980;DHT22;5543;51.734;8.744;2023-08-07T05:15:51;13.90;99.90
10980;DHT22;5543;51.734;8.744;2023-08-07T05:18:19;13.90;99.90
10980;DHT22;5543;51.734;8.744;2023-08-07T05:20:48;13.90;99.90
10980;DHT22;5543;51.734;8.744;2023-08-07T05:23:17;13.90;99.90
10980;DHT22;5543;51.734;8.744;2023-08-07T05:25:46;13.90;99.90
10980;DHT22;5543;51.734;8.744;2023-08-07T05:28:15;13.90;99.90
10980;DHT22;5543;51.734;8.744;2023-08-07T05:30:43;13.90;99.90
10980;DHT22;5543;51.734;8.744;2023-08-07T05:33:11;13.90;99.90
10980;DHT22;5543;51.734;8.744;2023-08-07T05:35:41;13.90;99.90
10980;DHT22;5543;51.734;8.744;2023-08-07T05:38:09;13.90;99.90
10980;DHT22;5543;51.734;8.744;2023-08-07T05:40:39;13.90;99.90
10980;DHT22;5543;51.734;8.744;2023-08-07T05:43:07;13.90;99.90
10980;DHT22;5543;51.734;8.744;2023-08-07T05:45:37;13.90;99.90
10980;DHT22;5543;51.734;8.744;2023-08-07T05:48:06;14.10;99.90
10980;DHT22;5543;51.734;8.744;2023-08-07T05:50:36;14.00;99.90
10980;DHT22;5543;51.734;8.744;2023-08-07T05:53:04;13.90;99.90
10980;DHT22;5543;51.734;8.744;2023-08-07T05:55:32;14.00;99.90
10980;DHT22;5543;51.734;8.744;2023-08-07T05:58:02;14.00;99.90
10980;DHT22;5543;51.734;8.744;2023-08-07T06:00:30;14.00;99.90
10980;DHT22;5543;51.734;8.744;2023-08-07T06:02:58;14.00;99.90
10980;DHT22;5543;51.734;8.744;2023-08-07T06:05:26;14.00;99.90
10980;DHT22;5543;51.734;8.744;2023-08-07T06:07:54;14.00;99.90
10980;DHT22;5543;51.734;8.744;2023-08-07T06:10:22;14.10;99.90
10980;DHT22;5543;51.734;8.744;2023-08-07T06:12:50;14.10;99.90
10980;DHT22;5543;51.734;8.744;2023-08-07T06:15:20;14.20;99.90
10980;DHT22;5543;51.734;8.744;2023-08-07T06:17:48;14.30;99.90
10980;DHT22;5543;51.734;8.744;2023-08-07T06:20:18;14.30;99.90
10980;DHT22;5543;51.734;8.744;2023-08-07T06:22:47;14.30;99.90
10980;DHT22;5543;51.734;8.744;2023-08-07T06:25:15;14.40;99.90
10980;DHT22;5543;51.734;8.744;2023-08-07T06:27:43;14.40;99.90
10980;DHT22;5543;51.734;8.744;2023-08-07T06:30:12;14.40;99.90
10980;DHT22;5543;51.734;8.744;2023-08-07T06:32:42;14.50;99.90
10980;DHT22;5543;51.734;8.744;2023-08-07T06:35:10;14.50;99.90
10980;DHT22;5543;51.734;8.744;2023-08-07T06:37:38;14.50;99.90
10980;DHT22;5543;51.734;8.744;2023-08-07T06:40:07;14.50;99.90
10980;DHT22;5543;51.734;8.744;2023-08-07T06:42:35;14.50;99.90
10980;DHT22;5543;51.734;8.744;2023-08-07T06:45:04;14.50;99.90
10980;DHT22;5543;51.734;8.744;2023-08-07T06:47:33;14.50;99.90
10980;DHT22;5543;51.734;8.744;2023-08-07T06:50:03;14.50;99.90
10980;DHT22;5543;51.734;8.744;2023-08-07T06:52:33;14.40;99.90
10980;DHT22;5543;51.734;8.744;2023-08-07T06:55:02;14.40;99.90
10980;DHT22;5543;51.734;8.744;2023-08-07T06:57:30;14.40;99.90
10980;DHT22;5543;51.734;8.744;2023-08-07T06:59:58;14.30;99.90
10980;DHT22;5543;51.734;8.744;2023-08-07T07:02:26;14.30;99.90
10980;DHT22;5543;51.734;8.744;2023-08-07T07:04:54;14.30;99.90
10980;DHT22;5543;51.734;8.744;2023-08-07T07:07:24;14.30;99.90
10980;DHT22;5543;51.734;8.744;2023-08-07T07:09:52;14.30;99.90
10980;DHT22;5543;51.734;8.744;2023-08-07T07:12:20;14.40;99.90
10980;DHT22;5543;51.734;8.744;2023-08-07T07:14:48;14.30;99.90
10980;DHT22;5543;51.734;8.744;2023-08-07T07:17:17;14.50;99.90
10980;DHT22;5543;51.734;8.744;2023-08-07T07:19:45;14.30;99.90
10980;DHT22;5543;51.734;8.744;2023-08-07T07:22:13;14.30;99.90
10980;DHT22;5543;51.734;8.744;2023-08-07T07:24:43;14.40;99.90
10980;DHT22;5543;51.734;8.744;2023-08-07T07:27:11;14.40;99.90
10980;DHT22;5543;51.734;8.744;2023-08-07T07:29:39;14.50;99.90
10980;DHT22;5543;51.734;8.744;2023-08-07T07:32:07;14.50;99.90
10980;DHT22;5543;51.734;8.744;2023-08-07T07:34:35;14.50;99.90
10980;DHT22;5543;51.734;8.744;2023-08-07T07:37:04;14.60;99.90
10980;DHT22;5543;51.734;8.744;2023-08-07T07:39:34;14.70;99.90
10980;DHT22;5543;51.734;8.744;2023-08-07T07:42:04;14.90;99.90
10980;DHT22;5543;51.734;8.744;2023-08-07T07:44:33;14.90;99.90
10980;DHT22;5543;51.734;8.744;2023-08-07T07:47:02;15.00;99.90
10980;DHT22;5543;51.734;8.744;2023-08-07T07:49:32;15.00;99.90
10980;DHT22;5543;51.734;8.744;2023-08-07T07:52:00;15.00;99.90
10980;DHT22;5543;51.734;8.744;2023-08-07T07:54:29;14.90;99.90
10980;DHT22;5543;51.734;8.744;2023-08-07T07:56:57;14.80;99.90
10980;DHT22;5543;51.734;8.744;2023-08-07T07:59:26;14.70;99.90
10980;DHT22;5543;51.734;8.744;2023-08-07T08:01:55;14.70;99.90
10980;DHT22;5543;51.734;8.744;2023-08-07T08:04:23;14.70;99.90
10980;DHT22;5543;51.734;8.744;2023-08-07T08:06:52;14.70;99.90
10980;DHT22;5543;51.734;8.744;2023-08-07T08:09:20;14.80;99.90
10980;DHT22;5543;51.734;8.744;2023-08-07T08:11:48;14.80;99.90
10980;DHT22;5543;51.734;8.744;2023-08-07T08:14:16;14.70;99.90
10980;DHT22;5543;51.734;8.744;2023-08-07T08:16:46;14.80;99.90
10980;DHT22;5543;51.734;8.744;2023-08-07T08:19:14;14.80;99.90
10980;DHT22;5543;51.734;8.744;2023-08-07T08:21:43;14.80;99.90
10980;DHT22;5543;51.734;8.744;2023-08-07T08:24:11;14.90;99.90
10980;DHT22;5543;51.734;8.744;2023-08-07T08:26:39;14.90;99.90
10980;DHT22;5543;51.734;8.744;2023-08-07T08:29:07;14.90;99.90
10980;DHT22;5543;51.734;8.744;2023-08-07T08:31:36;14.90;99.90
10980;DHT22;5543;51.734;8.744;2023-08-07T08:34:05;14.90;99.90
10980;DHT22;5543;51.734;8.744;2023-08-07T08:36:34;14.80;99.90
10980;DHT22;5543;51.734;8.744;2023-08-07T08:39:02;14.80;99.90
10980;DHT22;5543;51.734;8.744;2023-08-07T08:41:31;14.90;99.90
10980;DHT22;5543;51.734;8.744;2023-08-07T08:44:01;14.90;99.90
10980;DHT22;5543;51.734;8.744;2023-08-07T08:46:31;14.90;99.90
10980;DHT22;5543;51.734;8.744;2023-08-07T08:49:01;15.10;99.90
10980;DHT22;5543;51.734;8.744;2023-08-07T08:51:33;15.20;99.90
10980;DHT22;5543;51.734;8.744;2023-08-07T08:54:02;15.30;99.90
10980;DHT22;5543;51.734;8.744;2023-08-07T08:56:31;15.30;99.90
10980;DHT22;5543;51.734;8.744;2023-08-07T08:59:01;15.30;99.90
10980;DHT22;5543;51.734;8.744;2023-08-07T09:01:30;15.40;99.90
10980;DHT22;5543;51.734;8.744;2023-08-07T09:04:00;15.40;99.90
10980;DHT22;5543;51.734;8.744;2023-08-07T09:06:33;15.50;99.90
10980;DHT22;5543;51.734;8.744;2023-08-07T09:09:01;15.70;99.90
10980;DHT22;5543;51.734;8.744;2023-08-07T09:11:30;15.80;99.90
10980;DHT22;5543;51.734;8.744;2023-08-07T09:14:01;15.90;99.90
10980;DHT22;5543;51.734;8.744;2023-08-07T09:16:30;16.20;99.90
10980;DHT22;5543;51.734;8.744;2023-08-07T09:18:59;16.50;99.90
10980;DHT22;5543;51.734;8.744;2023-08-07T09:21:32;16.80;99.90
10980;DHT22;5543;51.734;8.744;2023-08-07T09:24:01;16.90;99.90
10980;DHT22;5543;51.734;8.744;2023-08-07T09:26:32;17.00;99.90
10980;DHT22;5543;51.734;8.744;2023-08-07T09:29:01;17.20;99.90
10980;DHT22;5543;51.734;8.744;2023-08-07T09:31:30;17.30;99.90
10980;DHT22;5543;51.734;8.744;2023-08-07T09:34:02;17.40;99.90
10980;DHT22;5543;51.734;8.744;2023-08-07T09:36:33;17.70;99.90
10980;DHT22;5543;51.734;8.744;2023-08-07T09:39:02;18.10;99.90
10980;DHT22;5543;51.734;8.744;2023-08-07T09:41:31;18.70;99.90
10980;DHT22;5543;51.734;8.744;2023-08-07T09:44:06;19.00;99.90
10980;DHT22;5543;51.734;8.744;2023-08-07T09:46:41;19.70;99.90
10980;DHT22;5543;51.734;8.744;2023-08-07T09:49:09;20.70;99.90
10980;DHT22;5543;51.734;8.744;2023-08-07T09:51:46;20.80;99.90
10980;DHT22;5543;51.734;8.744;2023-08-07T09:54:17;20.80;99.90
10980;DHT22;5543;51.734;8.744;2023-08-07T09:56:47;21.60;99.90
10980;DHT22;5543;51.734;8.744;2023-08-07T09:59:16;22.10;99.90
10980;DHT22;5543;51.734;8.744;2023-08-07T10:01:44;22.10;99.90
10980;DHT22;5543;51.734;8.744;2023-08-07T10:04:12;22.00;99.90
10980;DHT22;5543;51.734;8.744;2023-08-07T10:06:44;21.60;99.90
10980;DHT22;5543;51.734;8.744;2023-08-07T10:09:14;20.60;99.90
10980;DHT22;5543;51.734;8.744;2023-08-07T10:11:42;19.60;99.90
10980;DHT22;5543;51.734;8.744;2023-08-07T10:14:11;19.00;99.90
10980;DHT22;5543;51.734;8.744;2023-08-07T10:16:40;18.30;99.90
10980;DHT22;5543;51.734;8.744;2023-08-07T10:19:09;18.00;99.90
10980;DHT22;5543;51.734;8.744;2023-08-07T10:21:38;17.80;99.90
10980;DHT22;5543;51.734;8.744;2023-08-07T10:24:09;17.80;99.90
10980;DHT22;5543;51.734;8.744;2023-08-07T10:26:42;17.90;99.90
10980;DHT22;5543;51.734;8.744;2023-08-07T10:29:16;18.00;99.90
10980;DHT22;5543;51.734;8.744;2023-08-07T10:31:45;17.90;99.90
10980;DHT22;5543;51.734;8.744;2023-08-07T10:34:15;17.70;99.90
10980;DHT22;5543;51.734;8.744;2023-08-07T10:36:44;17.50;99.90
10980;DHT22;5543;51.734;8.744;2023-08-07T10:39:15;17.50;99.90
10980;DHT22;5543;51.734;8.744;2023-08-07T10:41:46;17.60;99.90
10980;DHT22;5543;51.734;8.744;2023-08-07T10:44:18;17.80;99.90
10980;DHT22;5543;51.734;8.744;2023-08-07T10:46:48;18.10;99.90
10980;DHT22;5543;51.734;8.744;2023-08-07T10:49:37;18.20;99.90
10980;DHT22;5543;51.734;8.744;2023-08-07T10:52:08;18.10;99.90
10980;DHT22;5543;51.734;8.744;2023-08-07T10:54:40;18.10;99.90
10980;DHT22;5543;51.734;8.744;2023-08-07T10:57:11;18.00;99.90
10980;DHT22;5543;51.734;8.744;2023-08-07T10:59:44;17.90;99.90
10980;DHT22;5543;51.734;8.744;2023-08-07T11:02:23;17.80;99.90
10980;DHT22;5543;51.734;8.744;2023-08-07T11:04:52;17.70;99.90
10980;DHT22;5543;51.734;8.744;2023-08-07T11:07:25;18.10;99.90
10980;DHT22;5543;51.734;8.744;2023-08-07T11:09:56;18.30;99.90
10980;DHT22;5543;51.734;8.744;2023-08-07T11:12:25;18.30;99.90
10980;DHT22;5543;51.734;8.744;2023-08-07T11:14:53;18.90;99.90
10980;DHT22;5543;51.734;8.744;2023-08-07T11:17:24;19.60;99.90
10980;DHT22;5543;51.734;8.744;2023-08-07T11:19:53;19.90;99.90
10980;DHT22;5543;51.734;8.744;2023-08-07T11:22:21;19.70;99.90
10980;DHT22;5543;51.734;8.744;2023-08-07T11:24:50;19.70;99.90
10980;DHT22;5543;51.734;8.744;2023-08-07T11:27:22;19.60;99.90
10980;DHT22;5543;51.734;8.744;2023-08-07T11:29:50;19.80;99.90
10980;DHT22;5543;51.734;8.744;2023-08-07T11:32:21;20.50;99.90
10980;DHT22;5543;51.734;8.744;2023-08-07T11:34:49;21.10;99.90
10980;DHT22;5543;51.734;8.744;2023-08-07T11:37:19;21.10;99.90
10980;DHT22;5543;51.734;8.744;2023-08-07T11:39:48;21.10;99.90
10980;DHT22;5543;51.734;8.744;2023-08-07T11:42:22;20.80;99.90
10980;DHT22;5543;51.734;8.744;2023-08-07T11:44:51;20.60;99.90
10980;DHT22;5543;51.734;8.744;2023-08-07T11:47:24;20.00;99.90
10980;DHT22;5543;51.734;8.744;2023-08-07T11:49:52;19.20;99.90
10980;DHT22;5543;51.734;8.744;2023-08-07T11:52:21;18.60;99.90
10980;DHT22;5543;51.734;8.744;2023-08-07T11:54:52;18.10;99.90
10980;DHT22;5543;51.734;8.744;2023-08-07T11:57:22;17.70;99.90
10980;DHT22;5543;51.734;8.744;2023-08-07T11:59:50;17.50;99.90
10980;DHT22;5543;51.734;8.744;2023-08-07T12:02:23;17.40;99.90
10980;DHT22;5543;51.734;8.744;2023-08-07T12:04:57;17.30;99.90
10980;DHT22;5543;51.734;8.744;2023-08-07T12:07:25;17.40;99.90
10980;DHT22;5543;51.734;8.744;2023-08-07T12:10:02;17.10;99.90
10980;DHT22;5543;51.734;8.744;2023-08-07T12:12:34;16.90;99.90
10980;DHT22;5543;51.734;8.744;2023-08-07T12:15:07;16.80;99.90
10980;DHT22;5543;51.734;8.744;2023-08-07T12:17:35;16.70;99.90
10980;DHT22;5543;51.734;8.744;2023-08-07T12:20:05;16.70;99.90
10980;DHT22;5543;51.734;8.744;2023-08-07T12:22:37;16.60;99.90
10980;DHT22;5543;51.734;8.744;2023-08-07T12:25:08;16.70;99.90
10980;DHT22;5543;51.734;8.744;2023-08-07T12:27:38;16.90;99.90
10980;DHT22;5543;51.734;8.744;2023-08-07T12:30:07;17.30;99.90
10980;DHT22;5543;51.734;8.744;2023-08-07T12:32:35;17.80;99.90
10980;DHT22;5543;51.734;8.744;2023-08-07T12:35:04;18.30;99.90
10980;DHT22;5543;51.734;8.744;2023-08-07T12:37:38;18.60;99.90
10980;DHT22;5543;51.734;8.744;2023-08-07T12:40:07;18.70;99.90
10980;DHT22;5543;51.734;8.744;2023-08-07T12:42:43;18.90;99.90
10980;DHT22;5543;51.734;8.744;2023-08-07T12:45:11;19.00;99.90
10980;DHT22;5543;51.734;8.744;2023-08-07T12:47:41;18.90;99.90
10980;DHT22;5543;51.734;8.744;2023-08-07T12:50:10;18.70;99.90
10980;DHT22;5543;51.734;8.744;2023-08-07T12:52:38;18.50;99.90
10980;DHT22;5543;51.734;8.744;2023-08-07T12:55:07;18.20;99.90
10980;DHT22;5543;51.734;8.744;2023-08-07T12:57:36;17.90;99.90
10980;DHT22;5543;51.734;8.744;2023-08-07T13:00:07;17.50;99.90
10980;DHT22;5543;51.734;8.744;2023-08-07T13:02:39;17.40;99.90
10980;DHT22;5543;51.734;8.744;2023-08-07T13:05:08;17.70;99.90
10980;DHT22;5543;51.734;8.744;2023-08-07T13:07:37;17.70;99.90
10980;DHT22;5543;51.734;8.744;2023-08-07T13:10:09;18.20;99.90
10980;DHT22;5543;51.734;8.744;2023-08-07T13:12:42;19.00;99.90
10980;DHT22;5543;51.734;8.744;2023-08-07T13:15:14;19.90;99.90
10980;DHT22;5543;51.734;8.744;2023-08-07T13:17:43;19.70;99.90
10980;DHT22;5543;51.734;8.744;2023-08-07T13:20:13;19.60;99.90
10980;DHT22;5543;51.734;8.744;2023-08-07T13:22:42;19.50;99.90
10980;DHT22;5543;51.734;8.744;2023-08-07T13:25:12;19.40;99.90
10980;DHT22;5543;51.734;8.744;2023-08-07T13:27:44;19.40;99.90
10980;DHT22;5543;51.734;8.744;2023-08-07T13:30:14;19.20;99.90
10980;DHT22;5543;51.734;8.744;2023-08-07T13:32:44;19.00;99.90
10980;DHT22;5543;51.734;8.744;2023-08-07T13:35:13;18.70;99.90
10980;DHT22;5543;51.734;8.744;2023-08-07T13:37:41;18.30;99.90
10980;DHT22;5543;51.734;8.744;2023-08-07T13:40:10;18.10;99.90
10980;DHT22;5543;51.734;8.744;2023-08-07T13:42:40;18.20;99.90
10980;DHT22;5543;51.734;8.744;2023-08-07T13:45:09;18.30;99.90
10980;DHT22;5543;51.734;8.744;2023-08-07T13:47:39;18.50;99.90
10980;DHT22;5543;51.734;8.744;2023-08-07T13:50:10;18.90;99.90
10980;DHT22;5543;51.734;8.744;2023-08-07T13:52:40;19.40;99.90
10980;DHT22;5543;51.734;8.744;2023-08-07T13:55:08;19.40;99.90
10980;DHT22;5543;51.734;8.744;2023-08-07T13:57:39;19.70;99.90
10980;DHT22;5543;51.734;8.744;2023-08-07T14:00:09;19.40;99.90
10980;DHT22;5543;51.734;8.744;2023-08-07T14:02:40;19.20;99.90
10980;DHT22;5543;51.734;8.744;2023-08-07T14:05:08;19.00;99.20
10980;DHT22;5543;51.734;8.744;2023-08-07T14:07:38;18.80;99.00
10980;DHT22;5543;51.734;8.744;2023-08-07T14:10:07;18.70;99.90
10980;DHT22;5543;51.734;8.744;2023-08-07T14:12:35;18.60;99.90
10980;DHT22;5543;51.734;8.744;2023-08-07T14:15:04;18.60;99.40
10980;DHT22;5543;51.734;8.744;2023-08-07T14:17:35;18.60;99.90
10980;DHT22;5543;51.734;8.744;2023-08-07T14:20:06;18.80;99.90
10980;DHT22;5543;51.734;8.744;2023-08-07T14:22:35;19.00;99.90
10980;DHT22;5543;51.734;8.744;2023-08-07T14:25:05;19.10;99.70
10980;DHT22;5543;51.734;8.744;2023-08-07T14:27:34;19.10;99.90
10980;DHT22;5543;51.734;8.744;2023-08-07T14:30:02;18.90;99.10
10980;DHT22;5543;51.734;8.744;2023-08-07T14:32:30;18.60;99.80
10980;DHT22;5543;51.734;8.744;2023-08-07T14:34:58;18.90;99.70
10980;DHT22;5543;51.734;8.744;2023-08-07T14:37:27;19.00;98.50
10980;DHT22;5543;51.734;8.744;2023-08-07T14:39:56;19.10;98.70
10980;DHT22;5543;51.734;8.744;2023-08-07T14:42:24;19.10;99.90
10980;DHT22;5543;51.734;8.744;2023-08-07T14:44:53;18.90;99.70
10980;DHT22;5543;51.734;8.744;2023-08-07T14:47:21;19.00;99.60
10980;DHT22;5543;51.734;8.744;2023-08-07T14:49:50;19.00;99.90
10980;DHT22;5543;51.734;8.744;2023-08-07T14:52:18;19.10;99.90
10980;DHT22;5543;51.734;8.744;2023-08-07T14:54:48;19.10;99.90
10980;DHT22;5543;51.734;8.744;2023-08-07T14:57:16;19.10;99.90
10980;DHT22;5543;51.734;8.744;2023-08-07T14:59:44;19.10;99.80
10980;DHT22;5543;51.734;8.744;2023-08-07T15:02:12;19.50;99.50
10980;DHT22;5543;51.734;8.744;2023-08-07T15:04:40;19.70;99.90
10980;DHT22;5543;51.734;8.744;2023-08-07T15:07:08;19.80;99.00
10980;DHT22;5543;51.734;8.744;2023-08-07T15:09:37;19.90;99.40
10980;DHT22;5543;51.734;8.744;2023-08-07T15:12:07;20.20;98.10
10980;DHT22;5543;51.734;8.744;2023-08-07T15:14:36;20.40;97.20
10980;DHT22;5543;51.734;8.744;2023-08-07T15:17:04;20.40;97.60
10980;DHT22;5543;51.734;8.744;2023-08-07T15:19:33;20.50;98.50
10980;DHT22;5543;51.734;8.744;2023-08-07T15:22:01;20.40;98.00
10980;DHT22;5543;51.734;8.744;2023-08-07T15:24:29;20.50;98.10
10980;DHT22;5543;51.734;8.744;2023-08-07T15:26:57;20.50;96.80
10980;DHT22;5543;51.734;8.744;2023-08-07T15:35:23;20.80;97.90
10980;DHT22;5543;51.734;8.744;2023-08-07T15:37:53;20.80;97.40
10980;DHT22;5543;51.734;8.744;2023-08-07T15:40:21;20.70;98.10
10980;DHT22;5543;51.734;8.744;2023-08-07T15:42:49;20.60;98.10
10980;DHT22;5543;51.734;8.744;2023-08-07T15:45:17;20.30;96.70
10980;DHT22;5543;51.734;8.744;2023-08-07T15:47:45;20.00;96.70
10980;DHT22;5543;51.734;8.744;2023-08-07T15:50:14;20.00;97.40
10980;DHT22;5543;51.734;8.744;2023-08-07T15:52:43;20.00;97.10
10980;DHT22;5543;51.734;8.744;2023-08-07T15:55:11;20.10;96.60
10980;DHT22;5543;51.734;8.744;2023-08-07T15:57:39;20.10;96.40
10980;DHT22;5543;51.734;8.744;2023-08-07T16:00:08;20.20;95.70
10980;DHT22;5543;51.734;8.744;2023-08-07T16:02:37;19.90;95.20